Time;durP1;ratioP1;P1;durP2;ratioP2;P2;SDS_P1;SDS_P2;PMS_P1;PMS_P2;Temp;Humidity;BMP_temperature;BMP_pressure;BME280_temperature;BME280_humidity;BME280_pressure;Samples;Min_cycle;Max_cycle;Signal;HPM_P1;HPM_P2
2022/01/22 00:01:43;;;;;;;32.42;3.13;;;7.30;99.90;;;;;;6191066;23;20043;-83
2022/01/22 00:04:10;;;;;;;31.20;3.05;;;7.20;99.90;;;;;;6216372;23;20024;-83
2022/01/22 00:06:36;;;;;;;40.17;3.03;;;7.60;99.90;;;;;;6189633;23;20065;-84
2022/01/22 00:09:04;;;;;;;26.27;3.05;;;7.50;99.90;;;;;;6189500;23;20012;-84
2022/01/22 00:11:36;;;;;;;49.53;3.90;;;6.60;99.90;;;;;;6190497;23;20008;-85
2022/01/22 00:16:47;;;;;;;24.90;2.63;;;6.60;99.90;;;;;;6215725;23;20069;-84
2022/01/22 00:19:13;;;;;;;20.98;2.50;;;6.60;99.90;;;;;;6214787;23;20027;-84
2022/01/22 00:21:42;;;;;;;26.55;2.55;;;7.10;99.90;;;;;;6191517;23;20047;-84
2022/01/22 00:24:10;;;;;;;36.58;3.05;;;6.80;99.90;;;;;;6190969;23;20023;-84
2022/01/22 00:26:36;;;;;;;36.28;2.78;;;6.90;99.90;;;;;;6216150;23;20082;-83
2022/01/22 00:29:03;;;;;;;30.73;3.15;;;6.30;99.90;;;;;;6191258;23;20016;-84
2022/01/22 00:31:28;;;;;;;41.30;2.90;;;6.50;99.90;;;;;;6216656;23;20043;-83
2022/01/22 00:33:54;;;;;;;34.75;2.80;;;6.60;99.90;;;;;;6215693;23;20445;-83
2022/01/22 00:36:20;;;;;;;29.88;2.40;;;6.60;99.90;;;;;;6191641;23;20016;-83
2022/01/22 00:38:46;;;;;;;26.73;2.33;;;7.60;99.90;;;;;;6189538;23;20031;-83
2022/01/22 00:41:11;;;;;;;15.82;1.45;;;6.40;99.90;;;;;;6243016;23;20027;-84
2022/01/22 00:43:37;;;;;;;31.25;2.50;;;6.60;99.90;;;;;;6190991;23;20043;-84
2022/01/22 00:46:03;;;;;;;18.75;2.03;;;7.50;99.90;;;;;;6216207;23;20016;-83
2022/01/22 00:48:29;;;;;;;19.90;1.95;;;7.10;99.90;;;;;;6215868;23;20081;-84
2022/01/22 00:50:57;;;;;;;15.82;1.95;;;6.60;99.90;;;;;;6192017;23;20023;-84
2022/01/22 00:53:26;;;;;;;17.40;1.83;;;7.20;99.90;;;;;;6192297;23;20096;-84
2022/01/22 00:55:52;;;;;;;23.30;2.65;;;6.60;99.90;;;;;;6190952;23;20502;-83
2022/01/22 00:58:17;;;;;;;17.58;2.33;;;6.60;99.90;;;;;;6191857;23;20308;-83
2022/01/22 01:00:45;;;;;;;23.38;2.60;;;7.00;99.90;;;;;;6191423;23;20012;-83
2022/01/22 01:03:11;;;;;;;16.55;2.15;;;6.70;99.90;;;;;;6191313;23;20360;-83
2022/01/22 01:05:36;;;;;;;15.77;1.70;;;6.80;99.90;;;;;;6186087;23;20020;-83
2022/01/22 01:08:04;;;;;;;24.35;2.85;;;7.00;99.90;;;;;;6211922;23;20020;-83
2022/01/22 01:10:30;;;;;;;28.58;2.42;;;6.70;99.90;;;;;;6210694;23;20012;-83
2022/01/22 01:12:56;;;;;;;24.00;2.42;;;7.60;99.90;;;;;;6186802;23;20058;-83
2022/01/22 01:15:38;;;;;;;18.52;2.55;;;6.90;99.90;;;;;;6186705;23;20095;-83
2022/01/22 01:34:40;;;;;;;13.57;1.55;;;7.60;99.90;;;;;;6125496;23;20028;-83
2022/01/22 01:37:07;;;;;;;12.10;1.60;;;7.30;99.90;;;;;;6126446;23;20076;-83
2022/01/22 01:39:34;;;;;;;14.02;1.77;;;7.60;99.90;;;;;;6100867;23;20033;-83
2022/01/22 01:42:08;;;;;;;14.77;1.83;;;7.40;99.90;;;;;;6101636;23;20017;-83
2022/01/22 01:44:34;;;;;;;18.45;1.70;;;6.70;99.90;;;;;;6100985;23;20017;-83
2022/01/22 01:47:05;;;;;;;13.50;1.63;;;7.60;99.90;;;;;;6126485;23;20032;-83
2022/01/22 01:49:31;;;;;;;7.70;1.50;;;6.60;99.90;;;;;;6103199;23;20020;-83
2022/01/22 01:52:00;;;;;;;16.52;2.00;;;7.70;99.90;;;;;;6103648;23;20013;-83
2022/01/22 01:59:38;;;;;;;25.30;1.70;;;7.20;99.90;;;;;;6213036;23;20043;-82
2022/01/22 02:02:04;;;;;;;15.38;2.00;;;7.20;99.90;;;;;;6213683;23;20021;-83
2022/01/22 02:04:31;;;;;;;13.95;1.85;;;6.70;99.90;;;;;;6220753;23;20035;-83
2022/01/22 02:06:57;;;;;;;16.98;1.77;;;6.60;99.90;;;;;;6193668;23;20313;-83
2022/01/22 02:09:23;;;;;;;16.92;1.60;;;6.80;99.90;;;;;;6192972;23;20016;-83
2022/01/22 02:12:07;;;;;;;15.52;1.73;;;7.40;99.90;;;;;;6218507;23;20008;-83
2022/01/22 02:25:23;;;;;;;14.20;2.20;;;6.50;99.90;;;;;;6217521;23;20016;-83
2022/01/22 02:27:49;;;;;;;16.92;1.30;;;6.70;99.90;;;;;;6193282;23;20243;-83
2022/01/22 02:30:21;;;;;;;13.65;1.35;;;6.70;99.90;;;;;;6218702;23;20464;-83
2022/01/22 02:35:58;;;;;;;;;;;6.60;99.90;;;;;;6218515;23;20367;-83
2022/01/22 02:38:37;;;;;;;17.05;1.48;;;6.60;99.90;;;;;;6245522;23;20223;-83
2022/01/22 02:41:04;;;;;;;19.33;2.03;;;7.30;99.90;;;;;;6217862;23;20801;-83
2022/01/22 02:43:31;;;;;;;13.77;1.60;;;6.60;99.90;;;;;;6217877;23;20023;-83
2022/01/22 02:45:59;;;;;;;12.38;1.73;;;6.60;99.90;;;;;;6217617;23;20016;-83
2022/01/22 02:48:24;;;;;;;10.18;1.20;;;6.60;99.90;;;;;;6217632;23;20083;-83
2022/01/22 02:50:50;;;;;;;14.38;1.58;;;6.60;99.90;;;;;;6218052;23;20047;-83
2022/01/22 02:53:16;;;;;;;10.73;1.55;;;6.60;99.90;;;;;;6217027;23;20012;-83
2022/01/22 02:55:43;;;;;;;10.65;1.70;;;6.50;99.90;;;;;;6217003;23;20397;-83
2022/01/22 02:58:09;;;;;;;11.88;1.30;;;6.60;99.90;;;;;;6217522;23;20043;-83
2022/01/22 03:00:35;;;;;;;5.40;1.27;;;7.20;99.90;;;;;;6192268;23;20023;-83
2022/01/22 03:03:01;;;;;;;7.57;1.33;;;7.10;99.90;;;;;;6217371;23;20016;-83
2022/01/22 03:05:28;;;;;;;9.20;1.13;;;6.50;99.90;;;;;;6217594;23;20304;-83
2022/01/22 03:07:56;;;;;;;10.68;1.40;;;6.60;99.90;;;;;;6218259;23;20016;-83
2022/01/22 03:10:25;;;;;;;10.80;1.40;;;6.80;99.90;;;;;;6192160;23;20023;-83
2022/01/22 03:18:13;;;;;;;12.70;1.58;;;6.30;99.90;;;;;;6217617;23;20099;-83
2022/01/22 03:28:41;;;;;;;15.05;1.60;;;6.50;99.90;;;;;;6217520;23;20023;-83
2022/01/22 03:31:07;;;;;;;17.08;1.67;;;6.50;99.90;;;;;;6192825;23;20012;-83
2022/01/22 03:33:33;;;;;;;10.48;1.52;;;7.10;99.90;;;;;;6192412;23;20023;-84
2022/01/22 03:36:05;;;;;;;14.57;1.40;;;6.70;99.90;;;;;;6217559;23;20012;-83
2022/01/22 03:38:33;;;;;;;13.57;1.92;;;6.50;99.90;;;;;;6193171;23;20039;-84
2022/01/22 03:41:00;;;;;;;11.88;2.17;;;7.10;99.90;;;;;;6191973;23;20016;-83
2022/01/22 03:43:27;;;;;;;9.38;1.75;;;7.40;99.90;;;;;;6217598;23;20384;-83
2022/01/22 03:45:52;;;;;;;11.50;1.73;;;6.40;99.90;;;;;;6192439;23;20015;-83
2022/01/22 03:48:18;;;;;;;10.25;1.58;;;6.40;99.90;;;;;;6192342;23;20012;-83
2022/01/22 03:50:44;;;;;;;14.15;1.92;;;6.50;99.90;;;;;;6192211;23;20012;-83
2022/01/22 03:53:16;;;;;;;16.05;1.67;;;7.00;99.90;;;;;;6217547;23;20148;-84
2022/01/22 03:58:14;;;;;;;13.70;1.95;;;7.40;99.90;;;;;;6217613;23;20326;-84
2022/01/22 04:00:58;;;;;;;13.18;1.90;;;6.40;99.90;;;;;;6191782;23;20016;-84
2022/01/22 04:03:31;;;;;;;13.65;1.80;;;6.20;99.90;;;;;;6191831;23;20094;-84
2022/01/22 04:08:44;;;;;;;17.70;1.77;;;6.40;99.90;;;;;;6211286;23;20086;-84
2022/01/22 04:11:14;;;;;;;13.73;1.48;;;6.40;99.90;;;;;;6212016;23;20511;-83
2022/01/22 04:13:43;;;;;;;11.52;1.48;;;6.40;99.90;;;;;;6212341;23;20111;-84
2022/01/22 04:16:12;;;;;;;18.38;1.77;;;6.40;99.90;;;;;;6212908;23;20017;-84
2022/01/22 04:27:06;;;;;;;10.57;1.25;;;6.40;99.90;;;;;;6212348;23;20103;-83
2022/01/22 04:29:32;;;;;;;8.20;1.08;;;6.40;99.90;;;;;;6187234;23;20159;-83
2022/01/22 04:31:57;;;;;;;8.13;1.10;;;6.40;99.90;;;;;;6187138;23;20052;-83
2022/01/22 04:34:29;;;;;;;8.75;1.35;;;6.50;99.90;;;;;;6186681;23;20433;-82
2022/01/22 04:36:55;;;;;;;12.60;1.65;;;6.40;99.90;;;;;;6187444;23;20016;-83
2022/01/22 04:39:23;;;;;;;13.07;1.27;;;6.60;99.90;;;;;;6211064;23;20520;-83
2022/01/22 04:41:55;;;;;;;12.60;1.35;;;7.30;99.90;;;;;;6186890;23;20420;-83
2022/01/22 04:44:27;;;;;;;4.72;1.00;;;6.80;99.90;;;;;;6213123;23;20016;-84
2022/01/22 04:55:06;;;;;;;9.15;1.00;;;6.40;99.90;;;;;;6123282;23;20209;-84
2022/01/22 04:57:40;;;;;;;13.27;1.23;;;6.40;99.90;;;;;;6074650;23;20018;-83
2022/01/22 05:00:10;;;;;;;11.95;1.50;;;6.40;99.90;;;;;;6098934;23;20319;-83
2022/01/22 05:02:36;;;;;;;11.75;1.30;;;6.40;99.90;;;;;;6123314;23;20014;-83
2022/01/22 05:05:03;;;;;;;17.00;1.60;;;7.10;99.90;;;;;;6098408;23;20024;-83
2022/01/22 05:07:29;;;;;;;17.05;1.83;;;6.90;99.90;;;;;;6050538;23;20029;-83
2022/01/22 05:13:35;;;;;;;16.45;1.63;;;6.30;99.90;;;;;;6123298;23;20100;-83
2022/01/22 05:16:00;;;;;;;15.55;1.77;;;6.30;99.90;;;;;;6098894;23;20431;-84
2022/01/22 05:18:27;;;;;;;15.63;1.55;;;6.40;99.90;;;;;;6099321;23;20053;-83
2022/01/22 05:21:02;;;;;;;16.00;1.55;;;6.90;99.90;;;;;;6100716;23;20014;-82
2022/01/22 05:23:28;;;;;;;18.30;1.80;;;6.40;99.90;;;;;;6098987;23;20085;-83
2022/01/22 05:25:58;;;;;;;10.02;1.27;;;7.40;99.90;;;;;;6157476;23;20044;-83
2022/01/22 05:37:00;;;;;;;16.75;1.48;;;6.30;99.90;;;;;;6216441;23;20052;-83
2022/01/22 05:39:29;;;;;;;17.33;1.80;;;6.30;99.90;;;;;;6188605;23;20020;-83
2022/01/22 05:41:57;;;;;;;19.02;1.58;;;6.20;99.90;;;;;;6189764;23;20016;-83
2022/01/22 05:44:23;;;;;;;14.02;1.45;;;6.20;99.90;;;;;;6189506;23;20050;-82
2022/01/22 05:46:51;;;;;;;20.08;1.73;;;6.20;99.90;;;;;;6214413;23;20095;-84
2022/01/22 05:49:22;;;;;;;19.02;1.50;;;6.20;99.90;;;;;;6187391;23;20408;-80
2022/01/22 05:51:50;;;;;;;15.38;1.40;;;6.30;99.90;;;;;;6187888;23;20008;-82
2022/01/22 05:59:43;;;;;;;14.35;1.83;;;6.40;99.90;;;;;;6212887;23;20215;-84
2022/01/22 06:02:15;;;;;;;20.17;1.67;;;6.40;99.90;;;;;;6187873;23;20123;-82
2022/01/22 06:04:42;;;;;;;10.80;1.50;;;6.80;99.90;;;;;;6215541;23;20498;-83
2022/01/22 06:07:09;;;;;;;19.73;1.83;;;6.20;99.90;;;;;;6191983;23;20020;-83
2022/01/22 06:09:38;;;;;;;14.25;1.90;;;6.30;99.90;;;;;;6216513;23;20048;-83
2022/01/22 06:14:33;;;;;;;15.13;1.75;;;6.40;99.90;;;;;;6243617;23;20020;-83
2022/01/22 06:16:59;;;;;;;13.07;2.00;;;6.30;99.90;;;;;;6191678;23;20020;-82
2022/01/22 06:19:25;;;;;;;17.50;1.67;;;7.30;99.90;;;;;;6216490;23;20023;-82
2022/01/22 06:21:51;;;;;;;13.98;1.50;;;6.30;99.90;;;;;;6217715;23;20015;-83
2022/01/22 06:24:18;;;;;;;12.57;1.75;;;6.60;99.90;;;;;;6192782;23;20020;-82
2022/01/22 06:27:02;;;;;;;10.82;1.50;;;6.30;99.90;;;;;;6218434;23;20012;-82
2022/01/22 06:29:28;;;;;;;8.00;1.10;;;6.40;99.90;;;;;;6193623;23;20012;-83
2022/01/22 06:31:54;;;;;;;12.98;1.20;;;6.30;99.90;;;;;;6193445;23;20111;-81
2022/01/22 06:34:19;;;;;;;6.22;0.88;;;7.10;99.90;;;;;;6191169;23;20367;-83
2022/01/22 06:36:45;;;;;;;11.35;1.40;;;6.40;99.90;;;;;;6217401;23;20020;-83
2022/01/22 06:39:16;;;;;;;9.43;1.60;;;6.50;99.90;;;;;;6191659;23;20091;-83
2022/01/22 06:41:45;;;;;;;11.38;1.23;;;6.50;99.90;;;;;;6192704;23;20408;-83
2022/01/22 06:44:14;;;;;;;9.68;1.05;;;6.90;99.90;;;;;;6216522;23;20020;-83
2022/01/22 06:46:41;;;;;;;9.68;1.30;;;6.40;99.90;;;;;;6192626;23;20020;-82
2022/01/22 06:49:07;;;;;;;13.48;1.30;;;7.00;99.90;;;;;;6243749;23;20016;-82
2022/01/22 06:51:33;;;;;;;14.10;2.05;;;6.30;99.90;;;;;;6192883;23;20012;-83
2022/01/22 06:54:03;;;;;;;10.10;1.60;;;6.60;99.90;;;;;;6192622;23;20107;-83
2022/01/22 06:56:30;;;;;;;5.70;1.42;;;7.10;99.90;;;;;;6216663;23;20312;-81
2022/01/22 06:58:59;;;;;;;8.90;1.33;;;6.30;99.90;;;;;;6192327;23;20229;-84
2022/01/22 07:01:33;;;;;;;7.75;1.20;;;6.30;99.90;;;;;;6216704;23;20043;-82
2022/01/22 07:07:37;;;;;;;9.90;1.40;;;6.20;99.90;;;;;;6120574;23;20108;-81
2022/01/22 07:17:20;;;;;;;10.75;1.60;;;6.50;99.90;;;;;;6126603;23;20049;-83
2022/01/22 07:19:47;;;;;;;12.38;1.90;;;6.10;99.90;;;;;;6102137;23;20064;-84
2022/01/22 07:22:47;;;;;;;17.77;2.38;;;6.00;99.90;;;;;;6102142;23;20445;-83
2022/01/22 07:25:17;;;;;;;17.85;2.45;;;6.10;99.90;;;;;;6150541;23;20089;-83
2022/01/22 07:27:44;;;;;;;10.98;2.00;;;5.70;99.90;;;;;;6126043;23;20094;-84
2022/01/22 07:30:19;;;;;;;12.57;1.77;;;6.10;99.90;;;;;;6150785;23;20071;-84
2022/01/22 07:32:53;;;;;;;;;;;6.60;99.90;;;;;;6101048;23;20014;-82
2022/01/22 07:35:59;;;;;;;8.68;1.17;;;6.00;99.90;;;;;;6099952;23;19952;-83
2022/01/22 07:56:56;;;;;;;5.25;1.20;;;6.00;99.90;;;;;;5981381;23;20027;-82
2022/01/22 07:59:22;;;;;;;7.20;1.20;;;5.90;99.90;;;;;;5981471;23;20019;-83
2022/01/22 08:01:48;;;;;;;7.97;1.30;;;6.00;99.90;;;;;;5958655;23;20030;-84
2022/01/22 08:04:13;;;;;;;5.90;1.13;;;6.00;99.90;;;;;;5957594;23;20094;-82
2022/01/22 08:06:39;;;;;;;9.57;1.30;;;6.30;99.90;;;;;;6018013;23;20045;-82
2022/01/22 08:09:05;;;;;;;6.68;1.30;;;6.40;99.90;;;;;;6026545;23;20081;-82
2022/01/22 08:11:31;;;;;;;9.88;1.30;;;6.60;99.90;;;;;;6065326;23;20041;-81
2022/01/22 08:13:56;;;;;;;8.60;0.90;;;6.90;99.90;;;;;;6089289;23;20396;-83
2022/01/22 08:16:22;;;;;;;13.93;1.52;;;6.10;99.90;;;;;;6105581;23;20067;-82
2022/01/22 08:18:48;;;;;;;10.45;1.42;;;6.80;99.90;;;;;;6121894;23;20391;-84
2022/01/22 08:21:14;;;;;;;13.80;1.50;;;6.40;99.90;;;;;;6213487;23;20015;-82
2022/01/22 08:23:39;;;;;;;10.32;1.17;;;7.00;99.90;;;;;;6215276;23;20070;-80
2022/01/22 08:26:09;;;;;;;8.80;1.08;;;6.80;99.90;;;;;;6215321;23;20087;-81
2022/01/22 08:28:53;;;;;;;18.13;1.30;;;6.90;99.90;;;;;;6190606;23;20014;-82
2022/01/22 08:36:57;;;;;;;8.07;1.30;;;6.00;99.90;;;;;;6125744;23;20052;-83
2022/01/22 08:39:23;;;;;;;8.60;1.40;;;6.10;99.90;;;;;;6123647;23;20059;-80
2022/01/22 08:41:49;;;;;;;16.52;1.55;;;7.00;99.90;;;;;;6124581;23;20021;-80
2022/01/22 08:44:16;;;;;;;8.98;1.02;;;6.20;99.90;;;;;;6124539;23;20099;-81
2022/01/22 08:46:45;;;;;;;12.68;1.55;;;6.20;99.90;;;;;;6100986;23;20025;-83
2022/01/22 08:49:17;;;;;;;20.40;1.60;;;6.10;99.90;;;;;;6149564;23;20096;-83
2022/01/22 08:51:43;;;;;;;11.40;1.65;;;6.10;99.90;;;;;;6151519;23;20021;-83
2022/01/22 08:54:10;;;;;;;8.55;1.50;;;6.20;99.90;;;;;;6150815;23;20462;-82
2022/01/22 08:56:38;;;;;;;15.25;2.05;;;7.00;99.90;;;;;;6124981;23;20033;-82
2022/01/22 08:59:04;;;;;;;15.15;1.88;;;6.20;99.90;;;;;;6126193;23;20115;-84
2022/01/22 09:01:30;;;;;;;9.70;1.35;;;6.20;99.90;;;;;;6127467;23;20088;-86
2022/01/22 09:04:00;;;;;;;11.85;1.65;;;6.30;99.90;;;;;;6126352;23;20028;-84
2022/01/22 09:06:28;;;;;;;10.88;1.50;;;6.20;99.90;;;;;;6124558;23;20063;-83
2022/01/22 09:08:59;;;;;;;8.00;1.48;;;6.10;99.90;;;;;;6124751;23;20026;-83
2022/01/22 09:11:26;;;;;;;14.52;1.92;;;6.30;99.90;;;;;;6148245;23;20314;-83
2022/01/22 09:13:53;;;;;;;12.50;1.50;;;6.30;99.90;;;;;;6162386;23;20016;-83
2022/01/22 09:16:22;;;;;;;9.05;2.10;;;6.40;99.90;;;;;;6161294;23;20174;-85
2022/01/22 09:18:53;;;;;;;8.20;1.40;;;6.60;99.90;;;;;;6162129;23;20017;-84
2022/01/22 09:21:32;;;;;;;7.72;1.48;;;6.20;99.90;;;;;;6163603;23;20016;-84
2022/01/22 09:23:57;;;;;;;22.23;2.03;;;6.30;99.90;;;;;;6161454;23;20020;-85
2022/01/22 09:26:23;;;;;;;11.13;1.80;;;7.10;99.90;;;;;;6162635;23;20401;-84
2022/01/22 09:28:55;;;;;;;10.85;1.60;;;6.30;99.90;;;;;;6187311;23;20012;-86
2022/01/22 09:31:20;;;;;;;9.25;1.83;;;6.30;99.90;;;;;;6213897;23;20071;-84
2022/01/22 09:33:46;;;;;;;17.83;1.83;;;7.10;99.90;;;;;;6186713;23;20024;-84
2022/01/22 09:36:12;;;;;;;13.45;1.70;;;6.30;99.90;;;;;;6163317;23;20012;-83
2022/01/22 09:38:38;;;;;;;17.50;1.98;;;7.10;99.90;;;;;;6214189;23;20044;-84
2022/01/22 09:41:05;;;;;;;12.00;1.55;;;6.60;99.90;;;;;;6214007;23;20035;-79
2022/01/22 09:43:31;;;;;;;11.77;1.85;;;6.90;99.90;;;;;;6163576;23;20013;-80
2022/01/22 09:45:57;;;;;;;21.80;2.42;;;6.40;99.90;;;;;;6185462;23;20043;-79
2022/01/22 09:48:23;;;;;;;22.65;2.38;;;6.40;99.90;;;;;;6161380;23;20009;-78
2022/01/22 09:50:49;;;;;;;19.58;2.30;;;6.40;99.90;;;;;;6161083;23;20016;-79
2022/01/22 09:53:24;;;;;;;26.70;2.95;;;6.50;99.90;;;;;;6160837;23;20004;-85
2022/01/22 10:03:19;;;;;;;23.20;2.97;;;6.10;99.90;;;;;;6185439;23;20024;-82
2022/01/22 10:05:45;;;;;;;19.80;2.58;;;6.60;99.90;;;;;;6159114;23;20420;-82
2022/01/22 10:08:35;;;;;;;14.73;2.63;;;7.30;99.90;;;;;;6206994;23;20056;-81
2022/01/22 10:11:02;;;;;;;23.73;2.72;;;6.60;99.90;;;;;;6185319;23;20429;-83
2022/01/22 10:13:50;;;;;;;18.35;2.42;;;6.30;99.90;;;;;;6210785;23;20480;-83
2022/01/22 10:16:18;;;;;;;14.68;2.78;;;6.60;99.90;;;;;;6209110;23;20296;-85
2022/01/22 10:19:07;;;;;;;16.00;2.42;;;6.70;99.90;;;;;;6186748;23;20096;-86
2022/01/22 10:21:33;;;;;;;13.73;1.83;;;6.60;99.90;;;;;;6185487;23;20025;-83
2022/01/22 10:24:21;;;;;;;14.95;2.20;;;6.60;99.90;;;;;;6211271;23;20016;-83
2022/01/22 10:30:03;;;;;;;17.45;2.38;;;6.70;99.90;;;;;;6211335;23;20016;-80
2022/01/22 10:32:43;;;;;;;11.23;1.85;;;6.70;99.90;;;;;;6186849;23;20013;-80
2022/01/22 10:35:43;;;;;;;15.85;2.33;;;6.60;99.90;;;;;;6187816;23;20527;-85
2022/01/22 10:38:10;;;;;;;14.82;2.42;;;6.70;99.90;;;;;;6186866;23;20441;-79
2022/01/22 10:40:38;;;;;;;12.25;2.03;;;7.00;99.90;;;;;;6212485;23;20020;-80
2022/01/22 10:49:04;;;;;;;13.80;1.80;;;6.80;99.90;;;;;;6210294;23;20075;-80
2022/01/22 10:51:42;;;;;;;9.73;1.90;;;6.70;99.90;;;;;;6211395;23;20032;-81
2022/01/22 10:54:10;;;;;;;12.18;1.90;;;6.70;99.90;;;;;;6210202;23;20020;-80
2022/01/22 10:56:39;;;;;;;12.00;2.05;;;6.70;99.90;;;;;;6212965;23;20017;-78
2022/01/22 10:59:07;;;;;;;22.08;2.55;;;6.70;99.90;;;;;;6187886;23;20025;-77
2022/01/22 11:02:07;;;;;;;16.33;2.90;;;6.70;99.90;;;;;;6185272;23;20020;-81
2022/01/22 11:04:32;;;;;;;16.13;2.90;;;6.70;99.90;;;;;;6124798;23;20064;-82
2022/01/22 11:07:03;;;;;;;13.82;2.70;;;7.00;99.90;;;;;;6122920;23;20358;-86
2022/01/22 11:09:30;;;;;;;21.42;2.95;;;6.80;99.90;;;;;;6150965;23;20056;-84
2022/01/22 11:11:57;;;;;;;20.30;3.42;;;6.80;99.90;;;;;;6126748;23;20017;-84
2022/01/22 11:14:23;;;;;;;26.65;3.38;;;6.70;99.90;;;;;;6150497;23;20076;-84
2022/01/22 11:16:52;;;;;;;21.05;3.38;;;6.80;99.90;;;;;;6127187;23;20025;-84
2022/01/22 11:19:32;;;;;;;18.95;2.72;;;7.00;99.90;;;;;;6125575;23;20020;-83
2022/01/22 11:22:10;;;;;;;14.90;2.90;;;6.70;99.90;;;;;;6125430;23;20017;-84
2022/01/22 11:25:02;;;;;;;14.35;2.75;;;6.70;99.90;;;;;;6125343;23;20056;-83
2022/01/22 11:27:29;;;;;;;14.20;2.63;;;6.70;99.90;;;;;;6122213;23;20024;-81
2022/01/22 11:30:04;;;;;;;25.00;3.10;;;6.90;99.90;;;;;;6101998;23;20048;-81
2022/01/22 11:32:46;;;;;;;19.90;2.60;;;6.80;99.90;;;;;;6148495;23;20018;-84
2022/01/22 11:35:13;;;;;;;18.10;2.47;;;6.80;99.90;;;;;;6126030;23;20586;-83
2022/01/22 11:37:55;;;;;;;13.73;2.50;;;6.70;99.90;;;;;;6126196;23;20022;-83
2022/01/22 11:40:23;;;;;;;24.15;3.35;;;6.80;99.90;;;;;;6182255;23;20459;-81
2022/01/22 11:45:52;;;;;;;21.80;3.53;;;6.80;99.90;;;;;;6216681;23;20252;-85
2022/01/22 11:48:30;;;;;;;23.02;3.45;;;6.80;99.90;;;;;;6216804;23;20020;-84
2022/01/22 11:51:23;;;;;;;24.98;3.83;;;6.90;99.90;;;;;;6190966;23;20069;-83
2022/01/22 11:53:58;;;;;;;18.98;3.78;;;6.80;99.90;;;;;;6191529;23;20051;-85
2022/01/22 11:56:26;;;;;;;27.02;3.92;;;6.90;99.90;;;;;;6216886;23;20012;-86
2022/01/22 11:59:01;;;;;;;14.40;3.53;;;7.10;99.90;;;;;;6215931;23;20016;-81
2022/01/22 12:01:52;;;;;;;22.02;4.05;;;6.80;99.90;;;;;;6191203;23;20095;-81
2022/01/22 12:04:20;;;;;;;20.40;4.07;;;6.80;99.90;;;;;;6216338;23;20008;-81
2022/01/22 12:07:11;;;;;;;14.80;3.50;;;6.90;99.90;;;;;;6191046;23;20016;-83
2022/01/22 12:15:15;;;;;;;25.63;4.25;;;6.90;99.90;;;;;;6215367;23;20044;-81
2022/01/22 12:17:51;;;;;;;14.65;3.50;;;6.90;99.90;;;;;;6216095;23;20062;-83
2022/01/22 12:23:41;;;;;;;19.33;3.45;;;7.00;99.90;;;;;;6151027;23;20072;-86
2022/01/22 12:26:07;;;;;;;20.92;3.42;;;7.50;99.90;;;;;;6099624;23;20020;-83
2022/01/22 12:28:42;;;;;;;22.50;3.53;;;7.50;99.90;;;;;;6125288;23;20374;-82
2022/01/22 12:31:10;;;;;;;18.50;3.35;;;7.00;99.90;;;;;;6099503;23;20064;-80
2022/01/22 12:33:38;;;;;;;18.73;3.60;;;6.90;99.90;;;;;;6149330;23;20017;-81
2022/01/22 12:36:18;;;;;;;20.85;3.90;;;7.00;99.90;;;;;;6124855;23;20442;-81
2022/01/22 12:42:10;;;;;;;18.75;3.42;;;7.00;99.90;;;;;;6124897;23;20028;-83
2022/01/22 12:44:14;;;;;;;22.60;3.60;;;7.20;99.90;;;;;;6115021;23;20033;-83
2022/01/22 12:46:44;;;;;;;17.80;3.25;;;7.00;99.90;;;;;;6101046;23;20021;-78
2022/01/22 12:49:14;;;;;;;17.40;3.08;;;7.00;99.90;;;;;;6100443;23;20013;-78
2022/01/22 12:51:40;;;;;;;16.17;3.03;;;7.10;99.90;;;;;;6124080;23;20010;-80
2022/01/22 12:54:06;;;;;;;15.98;4.18;;;7.20;99.90;;;;;;6125667;23;20081;-80
2022/01/22 12:56:51;;;;;;;16.25;2.97;;;7.20;99.90;;;;;;6125616;23;20017;-84
2022/01/22 12:59:25;;;;;;;10.82;2.90;;;7.20;99.90;;;;;;6184128;23;20390;-85
2022/01/22 13:01:57;;;;;;;18.52;2.45;;;7.30;99.90;;;;;;6188877;23;20056;-82
2022/01/22 13:04:22;;;;;;;15.90;2.28;;;6.90;99.90;;;;;;6188955;23;20087;-83
2022/01/22 13:07:10;;;;;;;12.80;2.40;;;7.90;99.90;;;;;;6191019;23;20058;-83
2022/01/22 13:09:56;;;;;;;17.15;1.92;;;6.30;99.90;;;;;;6188458;23;20342;-82
2022/01/22 13:12:29;;;;;;;13.30;1.70;;;7.60;99.90;;;;;;6187199;23;20020;-82
2022/01/22 13:14:56;;;;;;;15.55;2.72;;;7.50;99.90;;;;;;6214407;23;20049;-83
2022/01/22 13:17:33;;;;;;;14.55;1.95;;;7.10;99.90;;;;;;6211077;23;20085;-82
2022/01/22 13:20:00;;;;;;;13.27;2.45;;;7.00;99.90;;;;;;6190795;23;20493;-83
2022/01/22 13:22:34;;;;;;;12.32;2.17;;;7.00;99.90;;;;;;6189983;23;20012;-82
2022/01/22 13:25:07;;;;;;;14.95;2.00;;;7.70;99.90;;;;;;6217873;23;20425;-81
2022/01/22 13:27:34;;;;;;;8.93;1.50;;;7.10;99.90;;;;;;6215388;23;20106;-82
2022/01/22 13:30:00;;;;;;;10.07;1.73;;;7.40;99.90;;;;;;6214804;23;20281;-80
2022/01/22 13:32:46;;;;;;;13.18;1.40;;;7.10;99.90;;;;;;6215706;23;20013;-79
2022/01/22 13:49:44;;;;;;;17.70;1.90;;;7.10;99.90;;;;;;6067845;23;20121;-82
2022/01/22 13:52:12;;;;;;;17.58;2.10;;;7.20;99.90;;;;;;6068558;23;20019;-85
2022/01/22 13:54:44;;;;;;;11.75;2.15;;;6.80;99.90;;;;;;6043198;23;20419;-84
2022/01/22 13:57:17;;;;;;;11.82;1.77;;;6.80;99.90;;;;;;6043478;23;20014;-86
2022/01/22 13:59:45;;;;;;;12.10;1.70;;;7.50;99.90;;;;;;6044178;23;20022;-81
2022/01/22 14:06:01;;;;;;;8.80;1.42;;;6.80;99.90;;;;;;6048936;23;20078;-79
2022/01/22 14:13:11;;;;;;;11.57;2.10;;;6.80;99.90;;;;;;5958976;24;20027;-81
2022/01/22 14:15:45;;;;;;;8.07;1.30;;;7.10;99.90;;;;;;6009857;23;20101;-82
2022/01/22 14:18:37;;;;;;;9.48;1.33;;;6.80;99.90;;;;;;6061893;23;20014;-82
2022/01/22 14:21:40;;;;;;;;;;;;;;;;;;;;;
2022/01/22 14:32:16;;;;;;;9.95;1.58;;;6.70;99.90;;;;;;6064183;23;20419;-82
2022/01/22 14:34:43;;;;;;;10.82;1.67;;;6.20;99.90;;;;;;6015029;23;20134;-82
2022/01/22 14:45:29;;;;;;;5.60;1.10;;;6.60;99.90;;;;;;6004328;23;20064;-85
2022/01/22 14:48:02;;;;;;;7.10;1.30;;;6.60;99.90;;;;;;6028382;23;20028;-80
2022/01/22 14:50:29;;;;;;;9.85;1.40;;;7.40;99.90;;;;;;6005499;23;20122;-80
2022/01/22 14:53:00;;;;;;;11.10;1.73;;;6.70;99.90;;;;;;6005352;23;20019;-80
2022/01/22 14:55:27;;;;;;;14.95;1.55;;;6.70;99.90;;;;;;6028520;23;20090;-82
2022/01/22 14:57:53;;;;;;;11.82;1.70;;;6.60;99.90;;;;;;6004756;23;20054;-80
2022/01/22 15:00:20;;;;;;;7.82;1.15;;;6.70;99.90;;;;;;6006520;23;20016;-80
2022/01/22 15:02:50;;;;;;;9.13;1.52;;;6.70;99.90;;;;;;6013718;23;20075;-82
2022/01/22 15:05:31;;;;;;;8.00;1.50;;;6.70;99.90;;;;;;6058779;23;20023;-83
2022/01/22 15:07:59;;;;;;;12.98;1.30;;;6.70;99.90;;;;;;6039495;23;20121;-84
2022/01/22 15:21:42;;;;;;;13.38;1.50;;;7.10;99.90;;;;;;6121195;23;20519;-82
2022/01/22 15:24:16;;;;;;;9.45;1.13;;;6.20;99.90;;;;;;6009517;23;20026;-81
2022/01/22 15:26:43;;;;;;;8.65;1.45;;;7.00;99.90;;;;;;6011183;23;20023;-80
2022/01/22 15:29:11;;;;;;;13.32;1.20;;;6.70;99.90;;;;;;6011088;23;20055;-76
2022/01/22 15:32:06;;;;;;;8.85;1.00;;;6.70;99.90;;;;;;5987196;23;20011;-79
2022/01/22 15:37:07;;;;;;;5.90;1.10;;;6.60;99.90;;;;;;6008842;23;20051;-81
2022/01/22 15:39:34;;;;;;;6.88;0.95;;;6.50;99.90;;;;;;6032016;23;20019;-80
2022/01/22 15:42:04;;;;;;;7.85;1.00;;;6.60;99.90;;;;;;6033083;23;20075;-80
2022/01/22 15:44:32;;;;;;;9.90;1.20;;;6.50;99.90;;;;;;5985432;23;20015;-79
2022/01/22 15:46:57;;;;;;;11.75;1.58;;;6.50;99.90;;;;;;6010310;23;20019;-78
2022/01/22 15:49:23;;;;;;;7.97;1.30;;;6.40;99.90;;;;;;5996256;23;20021;-79
2022/01/22 15:51:52;;;;;;;8.82;1.80;;;6.40;99.90;;;;;;6095136;23;20020;-78
2022/01/22 15:54:18;;;;;;;10.73;1.77;;;6.40;99.90;;;;;;6071617;23;20045;-78
2022/01/22 15:56:53;;;;;;;12.70;1.92;;;6.30;99.90;;;;;;6096152;23;20323;-82
2022/01/22 15:59:40;;;;;;;9.88;1.50;;;6.30;99.90;;;;;;6094340;23;20108;-82
2022/01/22 16:02:57;;;;;;;11.02;1.38;;;6.30;99.90;;;;;;6139207;23;20013;-82
2022/01/22 16:05:25;;;;;;;8.32;1.48;;;6.30;99.90;;;;;;6129245;23;20100;-80
2022/01/22 16:07:51;;;;;;;10.13;1.40;;;6.30;99.90;;;;;;6130521;23;20364;-80
2022/01/22 16:10:17;;;;;;;9.13;1.80;;;6.70;99.90;;;;;;6154989;23;20021;-80
2022/01/22 16:16:33;;;;;;;10.90;1.48;;;6.30;99.90;;;;;;6180272;23;20812;-81
2022/01/22 16:19:29;;;;;;;8.93;2.22;;;6.30;99.90;;;;;;6153593;23;20048;-78
2022/01/22 16:25:27;;;;;;;11.45;2.85;;;6.20;99.90;;;;;;6070549;23;20157;-77
2022/01/22 16:27:53;;;;;;;10.88;2.58;;;6.30;99.90;;;;;;6091268;23;20062;-79
2022/01/22 16:30:18;;;;;;;7.97;2.30;;;6.20;99.90;;;;;;6034293;23;20082;-79
2022/01/22 16:32:44;;;;;;;16.48;2.35;;;6.50;99.90;;;;;;6038624;23;20021;-82
2022/01/22 16:35:14;;;;;;;10.45;2.60;;;6.20;99.90;;;;;;6096104;23;20488;-78
2022/01/22 16:37:41;;;;;;;12.05;2.20;;;6.10;99.90;;;;;;6119717;23;20192;-80
2022/01/22 16:40:13;;;;;;;12.63;2.50;;;6.20;99.90;;;;;;6095037;23;20072;-78
2022/01/22 16:42:46;;;;;;;6.75;2.10;;;6.10;99.90;;;;;;6094632;23;20022;-81
2022/01/22 16:56:32;;;;;;;16.63;2.20;;;6.10;99.90;;;;;;6112026;23;20087;-78
2022/01/22 16:58:59;;;;;;;13.73;2.30;;;6.10;99.90;;;;;;6148529;23;20022;-80